createdAt,value
2022-12-08T05:08:30.195Z,3.87
2022-12-08T05:11:07.931Z,4.02
2022-12-08T05:13:35.825Z,3.88
2022-12-08T05:16:10.567Z,3.91
2022-12-08T05:18:38.842Z,3.90
2022-12-08T05:21:06.761Z,4.08
2022-12-08T05:23:34.675Z,4.21
2022-12-08T05:26:02.668Z,4.07
2022-12-08T05:28:46.109Z,3.86
2022-12-08T05:31:16.264Z,3.92
2022-12-08T05:33:45.373Z,4.06
2022-12-08T05:36:15.174Z,4.05
2022-12-08T05:38:43.926Z,3.86
2022-12-08T05:41:15.168Z,3.84
2022-12-08T05:43:42.663Z,3.87
2022-12-08T05:46:10.396Z,3.78
2022-12-08T05:48:37.858Z,4.17
2022-12-08T05:51:07.462Z,3.79
2022-12-08T05:53:34.774Z,3.71
2022-12-08T05:56:02.468Z,3.73
2022-12-08T05:58:29.960Z,3.76
2022-12-08T06:00:58.108Z,3.71
2022-12-08T06:03:26.073Z,3.60
2022-12-08T06:05:53.444Z,3.60
2022-12-08T06:08:20.972Z,3.52
2022-12-08T06:10:49.359Z,3.50
2022-12-08T06:13:16.871Z,3.53
2022-12-08T06:15:44.213Z,3.63
2022-12-08T06:18:11.973Z,3.46
2022-12-08T06:20:39.246Z,3.39
2022-12-08T06:23:06.661Z,3.52
2022-12-08T06:25:33.963Z,3.51
2022-12-08T06:28:01.904Z,3.50
2022-12-08T06:30:29.694Z,3.61
2022-12-08T06:32:57.012Z,3.43
2022-12-08T06:35:24.360Z,3.51
2022-12-08T06:37:51.767Z,3.67
2022-12-08T06:40:20.018Z,3.61
2022-12-08T06:42:47.813Z,3.54
2022-12-08T06:45:17.185Z,3.51
2022-12-08T06:47:44.718Z,3.44
2022-12-08T06:50:13.759Z,3.47
2022-12-08T06:52:51.752Z,3.37
2022-12-08T06:55:57.446Z,3.39
2022-12-08T06:58:12.900Z,3.44
2022-12-08T07:00:41.305Z,3.70
2022-12-08T07:03:09.913Z,3.64
2022-12-08T07:05:38.656Z,3.48
2022-12-08T07:08:08.693Z,3.45
2022-12-08T07:10:36.668Z,3.42
2022-12-08T07:13:04.351Z,3.55
2022-12-08T07:15:31.898Z,3.48
2022-12-08T07:18:00.475Z,3.29
2022-12-08T07:20:28.129Z,3.34
2022-12-08T07:22:55.645Z,3.31
2022-12-08T07:25:23.186Z,3.41
2022-12-08T07:27:51.767Z,3.37
2022-12-08T07:30:19.419Z,3.39
2022-12-08T07:32:47.126Z,3.36
2022-12-08T07:35:14.954Z,3.48
2022-12-08T07:37:43.134Z,3.42
2022-12-08T07:40:11.767Z,3.40
2022-12-08T07:42:40.151Z,3.42
2022-12-08T07:45:08.640Z,3.46
2022-12-08T07:47:36.294Z,3.48
2022-12-08T07:50:04.370Z,3.50
2022-12-08T07:52:34.357Z,3.40
2022-12-08T07:55:02.304Z,3.56
2022-12-08T07:57:29.664Z,3.61
2022-12-08T07:59:56.935Z,3.69
2022-12-08T08:02:25.951Z,3.48
2022-12-08T08:04:53.843Z,3.65
2022-12-08T08:07:21.375Z,3.72
2022-12-08T08:09:48.663Z,3.80
2022-12-08T08:12:31.418Z,3.76
2022-12-08T08:15:01.047Z,3.95
2022-12-08T08:17:29.431Z,3.85
2022-12-08T08:19:58.343Z,3.74
2022-12-08T08:22:26.700Z,3.95
2022-12-08T08:24:54.443Z,4.20
2022-12-08T08:27:22.578Z,4.51
2022-12-08T08:29:49.876Z,4.25
2022-12-08T08:32:17.876Z,4.31
2022-12-08T08:34:45.594Z,4.01
2022-12-08T08:37:12.928Z,4.23
2022-12-08T08:39:42.966Z,4.35
2022-12-08T08:42:10.201Z,4.17
2022-12-08T08:44:38.842Z,4.55
2022-12-08T08:47:07.172Z,4.53
2022-12-08T08:49:34.612Z,4.59
2022-12-08T08:52:03.268Z,4.41
2022-12-08T08:54:30.690Z,4.56
2022-12-08T08:56:59.106Z,4.45
2022-12-08T08:59:27.503Z,4.38
2022-12-08T09:01:55.540Z,4.72
2022-12-08T09:04:23.253Z,4.68
2022-12-08T09:06:50.645Z,4.75
2022-12-08T09:09:18.720Z,4.82
2022-12-08T09:11:46.097Z,4.50
2022-12-08T09:14:15.568Z,4.61
2022-12-08T09:16:43.301Z,4.95
2022-12-08T09:19:11.074Z,5.10
2022-12-08T09:21:39.801Z,4.84
2022-12-08T09:24:08.303Z,4.66
2022-12-08T09:26:35.544Z,4.55
2022-12-08T09:29:02.950Z,4.45
2022-12-08T09:31:30.792Z,4.49
2022-12-08T09:33:59.265Z,4.86
2022-12-08T09:36:26.870Z,4.84
2022-12-08T09:38:54.790Z,5.03
2022-12-08T09:41:48.292Z,5.11
2022-12-08T09:44:31.674Z,5.37
2022-12-08T09:47:05.639Z,5.22
2022-12-08T09:49:47.063Z,5.32
2022-12-08T09:52:38.155Z,5.28
2022-12-08T09:55:15.576Z,5.41
2022-12-08T09:57:43.685Z,5.26
2022-12-08T10:00:13.613Z,5.16
2022-12-08T10:02:47.650Z,5.01
2022-12-08T10:05:15.751Z,4.89
2022-12-08T10:07:49.449Z,5.43
2022-12-08T10:10:16.831Z,5.25
2022-12-08T10:13:11.822Z,5.38
2022-12-08T10:16:00.855Z,5.56
2022-12-08T10:18:32.931Z,5.29
2022-12-08T10:21:17.077Z,5.45
2022-12-08T10:23:53.046Z,5.57
2022-12-08T10:26:22.288Z,5.41
2022-12-08T10:28:49.958Z,5.55
2022-12-08T10:31:20.221Z,5.69
2022-12-08T10:34:00.475Z,5.57
2022-12-08T10:36:46.805Z,5.48
2022-12-08T10:39:29.896Z,5.62
2022-12-08T10:42:03.105Z,5.44
2022-12-08T10:44:30.556Z,5.52
2022-12-08T10:46:57.901Z,5.58
2022-12-08T10:49:29.203Z,5.57
2022-12-08T10:51:56.558Z,5.60
2022-12-08T10:54:32.558Z,5.56
2022-12-08T10:57:00.351Z,5.37
2022-12-08T10:59:29.200Z,5.38
2022-12-08T11:01:57.534Z,5.46
2022-12-08T11:04:30.765Z,5.77
2022-12-08T11:06:58.556Z,5.42
2022-12-08T11:09:41.988Z,5.30
2022-12-08T11:12:15.302Z,5.88
2022-12-08T11:14:42.748Z,5.82
2022-12-08T11:17:16.635Z,5.83
2022-12-08T11:19:54.518Z,5.82
2022-12-08T11:22:32.328Z,5.82
2022-12-08T11:25:12.081Z,5.82
2022-12-08T11:27:42.054Z,6.33
2022-12-08T11:30:16.737Z,6.54
2022-12-08T11:32:46.540Z,7.09
2022-12-08T11:35:23.271Z,7.56
2022-12-08T11:37:51.177Z,6.64
2022-12-08T11:40:28.546Z,6.57
2022-12-08T11:43:20.536Z,6.79
2022-12-08T11:45:59.851Z,6.74
2022-12-08T11:48:35.498Z,6.87
2022-12-08T11:51:09.550Z,7.18
2022-12-08T11:53:55.942Z,7.39
2022-12-08T11:56:32.944Z,7.18
2022-12-08T11:59:15.729Z,6.98
2022-12-08T12:01:43.475Z,6.66
2022-12-08T12:04:34.160Z,6.49
2022-12-08T12:07:39.481Z,6.47
2022-12-08T12:10:07.638Z,6.44
2022-12-08T12:13:12.649Z,6.56
2022-12-08T12:15:58.542Z,6.70
2022-12-08T12:18:46.485Z,6.95
2022-12-08T12:21:19.486Z,6.70
2022-12-08T12:23:50.341Z,7.00
2022-12-08T12:26:24.558Z,7.27
2022-12-08T12:29:02.264Z,7.21
2022-12-08T12:31:33.613Z,7.65
2022-12-08T12:34:24.184Z,7.62
2022-12-08T12:36:57.722Z,7.23
2022-12-08T12:39:30.646Z,7.63
2022-12-08T12:42:00.767Z,7.59
2022-12-08T12:44:28.954Z,7.90
2022-12-08T12:46:59.780Z,7.79
2022-12-08T12:49:39.891Z,7.26
2022-12-08T12:52:10.759Z,7.42
2022-12-08T12:54:43.231Z,7.49
2022-12-08T12:57:10.546Z,7.24
2022-12-08T12:59:43.571Z,6.97
2022-12-08T13:02:30.288Z,7.28
2022-12-08T13:05:18.747Z,7.27
2022-12-08T13:07:56.832Z,7.37
2022-12-08T13:10:33.391Z,7.44
2022-12-08T13:13:10.672Z,7.30
2022-12-08T13:15:40.450Z,7.00
2022-12-08T13:18:19.450Z,6.98
2022-12-08T13:20:50.814Z,7.02
2022-12-08T13:23:29.175Z,6.72
2022-12-08T13:26:12.057Z,6.83
2022-12-08T13:29:04.157Z,6.70
2022-12-08T13:31:35.463Z,6.97
2022-12-08T13:34:09.347Z,6.91
2022-12-08T13:36:42.160Z,6.78
2022-12-08T13:39:26.724Z,6.55
2022-12-08T13:42:01.524Z,6.70
2022-12-08T13:48:23.465Z,6.56
2022-12-08T13:57:05.113Z,6.58
2022-12-08T13:59:34.311Z,6.67
2022-12-08T14:02:16.948Z,6.72
2022-12-08T14:05:16.754Z,7.27
2022-12-08T14:07:34.970Z,6.99
2022-12-08T14:10:04.759Z,7.07
2022-12-08T14:12:33.055Z,6.55
2022-12-08T14:15:06.731Z,6.49
2022-12-08T14:17:34.720Z,6.59
2022-12-08T14:20:14.429Z,6.60
2022-12-08T14:22:42.274Z,6.56
2022-12-08T14:25:14.482Z,6.37
2022-12-08T14:27:42.543Z,6.51
2022-12-08T14:30:16.079Z,6.40
2022-12-08T14:32:54.690Z,6.33
2022-12-08T14:35:24.450Z,6.57
2022-12-08T14:37:56.472Z,6.72
2022-12-08T14:40:35.955Z,6.78
2022-12-08T14:43:10.251Z,6.70
2022-12-08T14:45:40.705Z,6.53
2022-12-08T14:48:27.808Z,6.61
2022-12-08T14:51:20.368Z,6.45
2022-12-08T14:54:05.468Z,6.38
2022-12-08T14:56:38.263Z,6.48
2022-12-08T14:59:26.208Z,6.58
2022-12-08T15:02:27.171Z,6.50
2022-12-08T15:05:02.691Z,6.64
2022-12-08T15:07:37.549Z,6.64
2022-12-08T15:10:17.461Z,6.68
2022-12-08T15:13:05.802Z,6.38
2022-12-08T15:15:48.481Z,6.55
2022-12-08T15:18:35.158Z,6.63
2022-12-08T15:21:05.935Z,6.76
2022-12-08T15:23:41.819Z,6.42
2022-12-08T15:26:21.172Z,6.36
2022-12-08T15:28:48.588Z,6.49
2022-12-08T15:31:17.800Z,6.63
2022-12-08T15:33:45.243Z,6.48
2022-12-08T15:36:12.683Z,6.50
2022-12-08T15:38:39.917Z,6.37
2022-12-08T15:41:11.512Z,6.21
2022-12-08T15:43:41.945Z,6.40
2022-12-08T15:46:09.301Z,6.35
2022-12-08T15:48:37.418Z,6.45
2022-12-08T15:51:05.329Z,6.37
2022-12-08T15:53:33.034Z,6.29
2022-12-08T15:58:55.630Z,6.30
2022-12-08T16:01:24.008Z,6.13
2022-12-08T16:04:36.965Z,6.39
2022-12-08T16:07:20.260Z,6.56
2022-12-08T16:09:34.304Z,6.48
2022-12-08T16:12:21.033Z,6.35
2022-12-08T16:17:36.923Z,6.50
2022-12-08T16:20:07.560Z,6.72
2022-12-08T16:25:24.547Z,6.83
2022-12-08T16:28:17.319Z,6.81
2022-12-08T16:30:42.591Z,6.90
2022-12-08T16:33:12.094Z,6.91
2022-12-08T16:35:41.355Z,6.78
2022-12-08T16:38:14.687Z,6.75
2022-12-08T16:41:07.279Z,6.67
2022-12-08T16:43:35.243Z,6.64
2022-12-08T16:46:03.324Z,6.60
2022-12-08T16:48:31.579Z,6.56
2022-12-08T16:50:59.310Z,6.40
2022-12-08T16:53:27.082Z,6.44
2022-12-08T16:55:54.445Z,6.52
2022-12-08T16:58:22.171Z,6.71
2022-12-08T17:00:52.209Z,6.85
2022-12-08T17:03:19.558Z,6.85
2022-12-08T17:05:46.900Z,6.55
2022-12-08T17:08:14.357Z,6.57
2022-12-08T17:10:41.879Z,6.43
2022-12-08T17:13:09.494Z,6.55
2022-12-08T17:15:36.855Z,6.57
2022-12-08T17:18:04.433Z,6.72
2022-12-08T17:20:34.049Z,6.85
2022-12-08T17:23:01.455Z,6.86
2022-12-08T17:25:28.991Z,6.75
2022-12-08T17:27:56.780Z,6.82
2022-12-08T17:30:24.036Z,6.82
2022-12-08T17:32:52.825Z,6.82
2022-12-08T17:35:24.460Z,6.83
2022-12-08T17:37:52.471Z,6.53
2022-12-08T17:40:19.872Z,6.72
2022-12-08T17:42:47.123Z,6.78
2022-12-08T17:45:14.484Z,6.58
2022-12-08T17:47:42.281Z,6.52
2022-12-08T17:50:09.831Z,6.58
2022-12-08T17:52:37.374Z,6.38
2022-12-08T17:55:05.148Z,6.39
2022-12-08T17:57:32.424Z,6.46
2022-12-08T17:59:59.730Z,6.39
2022-12-08T18:02:27.713Z,6.43
2022-12-08T18:04:55.439Z,6.46
2022-12-08T18:07:23.107Z,6.45
2022-12-08T18:09:51.514Z,6.43
2022-12-08T18:12:23.405Z,6.38
2022-12-08T18:14:52.418Z,6.44
2022-12-08T18:17:20.692Z,6.46
2022-12-08T18:19:48.503Z,6.46
2022-12-08T18:22:16.051Z,6.54
2022-12-08T18:24:44.412Z,6.25
2022-12-08T18:27:11.840Z,6.35
2022-12-08T18:29:39.964Z,6.45
2022-12-08T18:32:08.361Z,6.33
2022-12-08T18:34:36.086Z,6.50
2022-12-08T18:37:04.508Z,6.44
2022-12-08T18:39:33.517Z,6.10
2022-12-08T18:42:22.292Z,6.29
2022-12-08T18:44:51.607Z,6.35
2022-12-08T18:47:19.290Z,6.30
2022-12-08T18:49:47.515Z,6.32
2022-12-08T18:52:19.269Z,6.44
2022-12-08T18:55:05.658Z,6.31
2022-12-08T18:57:33.594Z,6.18
2022-12-08T19:00:02.595Z,6.07
2022-12-08T19:02:30.548Z,6.18
2022-12-08T19:04:57.984Z,6.09
2022-12-08T19:07:25.780Z,6.17
2022-12-08T19:09:53.108Z,6.22
2022-12-08T19:12:20.406Z,6.27
2022-12-08T19:14:48.079Z,6.34
2022-12-08T19:17:15.941Z,6.44
2022-12-08T19:19:43.383Z,6.65
2022-12-08T19:22:12.235Z,6.64
2022-12-08T19:24:39.604Z,6.85
2022-12-08T19:27:07.059Z,6.58
2022-12-08T19:29:34.997Z,6.64
2022-12-08T19:32:05.060Z,6.70
2022-12-08T19:34:32.490Z,6.67
2022-12-08T19:36:59.823Z,6.76
2022-12-08T19:39:45.822Z,6.63
2022-12-08T19:42:37.699Z,6.50
2022-12-08T19:45:12.073Z,6.41
2022-12-08T19:47:40.169Z,6.33
2022-12-08T19:50:28.061Z,6.33
2022-12-08T19:52:56.016Z,6.51
2022-12-08T19:55:24.541Z,6.59
2022-12-08T19:57:53.229Z,6.50
2022-12-08T20:00:21.523Z,6.63
2022-12-08T20:02:49.299Z,6.81
2022-12-08T20:05:16.772Z,6.68
2022-12-08T20:07:44.628Z,6.63
2022-12-08T20:10:17.271Z,6.57
2022-12-08T20:12:45.465Z,6.63
2022-12-08T20:15:14.687Z,6.72
2022-12-08T20:17:43.543Z,6.81
2022-12-08T20:20:14.271Z,6.64
2022-12-08T20:22:42.628Z,6.54
2022-12-08T20:25:13.091Z,6.55
2022-12-08T20:27:41.325Z,6.56
2022-12-08T20:30:15.060Z,6.56
2022-12-08T20:32:45.065Z,6.52
2022-12-08T20:35:13.135Z,6.52
2022-12-08T20:37:40.459Z,6.43
2022-12-08T20:40:08.493Z,6.47
2022-12-08T20:42:35.805Z,6.57
2022-12-08T20:45:06.372Z,6.76
2022-12-08T20:47:34.206Z,6.57
2022-12-08T20:50:02.727Z,6.57
2022-12-08T20:52:30.725Z,6.54
2022-12-08T20:54:58.135Z,6.65
2022-12-08T20:57:25.999Z,6.69
2022-12-08T20:59:53.390Z,6.60
2022-12-08T21:02:20.764Z,6.57
2022-12-08T21:04:48.898Z,6.66
2022-12-08T21:07:16.389Z,6.71
2022-12-08T21:09:44.163Z,6.73
2022-12-08T21:12:12.225Z,6.81
2022-12-08T21:14:40.661Z,6.73
2022-12-08T21:17:08.668Z,6.58
2022-12-08T21:19:36.556Z,6.67
2022-12-08T21:22:04.408Z,6.55
2022-12-08T21:24:34.329Z,6.65
2022-12-08T21:27:03.597Z,6.58
2022-12-08T21:29:31.001Z,6.68
2022-12-08T21:32:00.191Z,6.73
2022-12-08T21:34:31.945Z,6.46
2022-12-08T21:37:00.041Z,6.39
2022-12-08T21:39:27.611Z,6.59
2022-12-08T21:42:13.723Z,6.41
2022-12-08T21:44:41.418Z,6.14
2022-12-08T21:47:08.861Z,6.15
2022-12-08T21:49:36.281Z,6.36
2022-12-08T21:52:04.014Z,6.35
2022-12-08T21:54:31.523Z,6.25
2022-12-08T21:56:59.024Z,6.32
2022-12-08T21:59:26.891Z,6.34
2022-12-08T22:01:54.406Z,6.45
2022-12-08T22:04:24.553Z,6.43
2022-12-08T22:06:52.684Z,6.48
2022-12-08T22:09:20.130Z,6.49
2022-12-08T22:11:47.588Z,6.63
2022-12-08T22:14:15.635Z,6.55
2022-12-08T22:16:44.085Z,6.72
2022-12-08T22:19:12.204Z,6.64
2022-12-08T22:21:39.897Z,6.65
2022-12-08T22:24:07.605Z,6.50
2022-12-08T22:26:35.752Z,6.42
2022-12-08T22:29:03.042Z,6.47
2022-12-08T22:31:31.089Z,6.50
2022-12-08T22:33:58.966Z,6.56
2022-12-08T22:36:28.142Z,6.59
2022-12-08T22:38:55.766Z,6.53
2022-12-08T22:41:23.954Z,6.44
2022-12-08T22:43:51.752Z,6.50
2022-12-08T22:46:20.645Z,6.53
2022-12-08T22:48:49.118Z,6.57
2022-12-08T22:51:17.492Z,6.57
2022-12-08T22:53:45.636Z,6.49
2022-12-08T22:56:14.648Z,6.53
2022-12-08T22:58:43.032Z,6.46
2022-12-08T23:01:22.174Z,6.41
2022-12-08T23:03:50.222Z,6.33
